createdAt,value
2018-07-20T00:00:11.710Z,13.15
2018-07-20T00:02:40.976Z,13.43
2018-07-20T00:05:10.206Z,13.20
2018-07-20T00:07:39.431Z,13.08
2018-07-20T00:10:08.699Z,13.03
2018-07-20T00:12:37.914Z,12.98
2018-07-20T00:15:07.213Z,13.04
2018-07-20T00:17:36.463Z,13.09
2018-07-20T00:20:06.193Z,12.93
2018-07-20T00:22:35.458Z,12.82
2018-07-20T00:25:04.852Z,12.77
2018-07-20T00:27:34.080Z,12.77
2018-07-20T00:30:03.380Z,12.94
2018-07-20T00:32:32.570Z,12.68
2018-07-20T00:35:01.830Z,12.57
2018-07-20T00:37:31.047Z,12.61
2018-07-20T00:40:00.275Z,12.53
2018-07-20T00:42:29.529Z,12.49
2018-07-20T00:44:58.759Z,12.42
2018-07-20T00:47:28.008Z,12.44
2018-07-20T00:49:57.249Z,12.42
2018-07-20T00:52:26.495Z,12.42
2018-07-20T00:54:55.723Z,12.47
2018-07-20T00:57:24.974Z,12.85
2018-07-20T00:59:55.161Z,12.83
2018-07-20T01:02:24.404Z,12.57
2018-07-20T01:04:53.615Z,12.39
2018-07-20T01:07:22.924Z,12.26
2018-07-20T01:09:52.170Z,12.21
2018-07-20T01:12:21.442Z,12.50
2018-07-20T01:14:50.672Z,12.21
2018-07-20T01:17:19.918Z,12.13
2018-07-20T01:19:49.122Z,12.10
2018-07-20T01:22:18.375Z,12.05
2018-07-20T01:24:47.653Z,12.04
2018-07-20T01:27:16.973Z,12.25
2018-07-20T01:29:46.195Z,12.24
2018-07-20T01:32:15.453Z,12.17
2018-07-20T01:34:44.717Z,12.16
2018-07-20T01:37:13.918Z,12.17
2018-07-20T01:39:43.146Z,12.19
2018-07-20T01:42:12.638Z,12.15
2018-07-20T01:44:41.850Z,12.04
2018-07-20T01:47:11.072Z,12.02
2018-07-20T01:49:40.334Z,12.19
2018-07-20T01:52:09.629Z,11.99
2018-07-20T01:54:38.934Z,11.85
2018-07-20T01:57:08.161Z,11.82
2018-07-20T01:59:37.415Z,11.82
2018-07-20T02:02:06.678Z,11.74
2018-07-20T02:04:35.902Z,11.73
2018-07-20T02:07:05.130Z,11.70
2018-07-20T02:09:34.395Z,11.80
2018-07-20T02:12:03.638Z,11.70
2018-07-20T02:14:32.877Z,11.74
2018-07-20T02:17:02.099Z,11.89
2018-07-20T02:19:31.355Z,11.71
2018-07-20T02:22:00.619Z,11.67
2018-07-20T02:24:31.118Z,11.57
2018-07-20T02:27:00.355Z,11.53
2018-07-20T02:29:29.627Z,11.50
2018-07-20T02:31:58.855Z,11.41
2018-07-20T02:34:28.092Z,11.39
2018-07-20T02:36:57.346Z,11.41
2018-07-20T02:39:26.600Z,11.40
2018-07-20T02:41:55.838Z,11.41
2018-07-20T02:44:25.053Z,11.39
2018-07-20T02:46:54.328Z,11.33
2018-07-20T02:49:23.561Z,11.32
2018-07-20T02:51:52.818Z,11.34
2018-07-20T02:54:22.084Z,11.44
2018-07-20T02:56:51.303Z,11.38
2018-07-20T02:59:20.531Z,11.32
2018-07-20T03:01:49.771Z,11.28
2018-07-20T03:04:19.097Z,11.26
2018-07-20T03:06:48.327Z,11.30
2018-07-20T03:09:17.578Z,11.35
2018-07-20T03:11:46.937Z,11.17
2018-07-20T03:14:16.168Z,11.08
2018-07-20T03:16:45.458Z,11.11
2018-07-20T03:19:14.694Z,11.12
2018-07-20T03:21:43.941Z,11.24
2018-07-20T03:24:13.255Z,11.45
2018-07-20T03:26:42.469Z,11.40
2018-07-20T03:29:11.698Z,11.28
2018-07-20T03:31:40.935Z,11.08
2018-07-20T03:34:10.168Z,11.00
2018-07-20T03:36:40.666Z,10.96
2018-07-20T03:39:10.580Z,10.92
2018-07-20T03:41:39.833Z,10.90
2018-07-20T03:44:09.328Z,10.89
2018-07-20T03:46:38.586Z,10.93
2018-07-20T03:49:08.816Z,11.18
2018-07-20T03:51:38.031Z,11.14
2018-07-20T03:54:07.302Z,11.27
2018-07-20T03:56:36.582Z,11.33
2018-07-20T03:59:05.863Z,11.41
2018-07-20T04:01:35.107Z,11.52
2018-07-20T04:04:04.437Z,11.39
2018-07-20T04:06:33.660Z,11.32
2018-07-20T04:09:02.925Z,11.34
2018-07-20T04:11:32.207Z,11.44
2018-07-20T04:14:01.438Z,11.58
2018-07-20T04:16:30.670Z,11.66
2018-07-20T04:18:59.919Z,11.64
2018-07-20T04:21:29.196Z,11.70
2018-07-20T04:23:58.414Z,11.77
2018-07-20T04:26:27.690Z,11.85
2018-07-20T04:28:56.910Z,12.07
2018-07-20T04:31:26.130Z,12.24
2018-07-20T04:33:55.346Z,12.23
2018-07-20T04:36:24.604Z,12.36
2018-07-20T04:38:53.795Z,12.45
2018-07-20T04:41:23.066Z,12.65
2018-07-20T04:43:52.466Z,12.73
2018-07-20T04:46:21.688Z,12.89
2018-07-20T04:48:50.949Z,13.28
2018-07-20T04:51:20.174Z,13.39
2018-07-20T04:53:49.394Z,13.38
2018-07-20T04:56:18.646Z,13.50
2018-07-20T04:58:47.857Z,13.57
2018-07-20T05:01:17.191Z,13.97
2018-07-20T05:03:46.429Z,16.22
2018-07-20T05:06:15.722Z,18.25
2018-07-20T05:08:44.963Z,19.13
2018-07-20T05:11:14.198Z,20.47
2018-07-20T05:13:44.690Z,21.50
2018-07-20T05:16:13.955Z,23.20
2018-07-20T05:18:43.181Z,23.28
2018-07-20T05:21:12.450Z,23.24
2018-07-20T05:23:41.702Z,23.70
2018-07-20T05:26:10.921Z,24.06
2018-07-20T05:28:41.220Z,24.70
2018-07-20T05:31:10.510Z,26.04
2018-07-20T05:33:39.731Z,27.45
2018-07-20T05:36:08.988Z,28.55
2018-07-20T05:38:38.226Z,29.18
2018-07-20T05:41:07.575Z,28.55
2018-07-20T05:43:36.794Z,28.22
2018-07-20T05:46:06.015Z,28.48
2018-07-20T05:48:35.287Z,27.76
2018-07-20T05:51:04.528Z,28.47
2018-07-20T05:53:33.777Z,29.06
2018-07-20T05:56:03.022Z,27.69
2018-07-20T05:58:32.409Z,29.03
2018-07-20T06:01:02.530Z,28.43
2018-07-20T06:03:31.894Z,28.32
2018-07-20T06:06:01.142Z,29.88
2018-07-20T06:08:30.370Z,30.02
2018-07-20T06:10:59.607Z,31.19
2018-07-20T06:13:28.850Z,31.53
2018-07-20T06:15:58.094Z,32.46
2018-07-20T06:18:27.337Z,32.80
2018-07-20T06:20:56.644Z,32.82
2018-07-20T06:23:25.900Z,33.57
2018-07-20T06:25:55.109Z,32.94
2018-07-20T06:28:24.342Z,31.41
2018-07-20T06:30:53.587Z,31.96
2018-07-20T06:33:22.845Z,33.29
2018-07-20T06:35:52.102Z,32.21
2018-07-20T06:38:21.326Z,31.59
2018-07-20T06:40:50.647Z,31.61
2018-07-20T06:43:20.069Z,33.76
2018-07-20T06:45:49.487Z,34.64
2018-07-20T06:48:18.703Z,34.22
2018-07-20T06:50:48.102Z,35.60
2018-07-20T06:53:17.338Z,35.12
2018-07-20T06:55:46.639Z,34.91
2018-07-20T06:58:15.881Z,35.26
2018-07-20T07:00:45.115Z,36.16
2018-07-20T07:03:14.362Z,35.55
2018-07-20T07:05:43.626Z,36.03
2018-07-20T07:08:12.870Z,36.70
2018-07-20T07:10:42.077Z,35.46
2018-07-20T07:13:11.348Z,35.38
2018-07-20T07:15:40.583Z,36.16
2018-07-20T07:18:09.834Z,36.47
2018-07-20T07:20:39.138Z,37.12
2018-07-20T07:23:08.339Z,37.99
2018-07-20T07:25:38.846Z,35.95
2018-07-20T07:28:08.080Z,37.59
2018-07-20T07:30:37.360Z,37.05
2018-07-20T07:33:06.687Z,36.60
2018-07-20T07:35:35.923Z,36.02
2018-07-20T07:38:05.138Z,35.88
2018-07-20T07:40:34.383Z,35.56
2018-07-20T07:43:03.599Z,36.42
2018-07-20T07:45:32.830Z,35.63
2018-07-20T07:48:02.071Z,34.49
2018-07-20T07:50:31.310Z,34.05
2018-07-20T07:53:00.554Z,33.28
2018-07-20T07:55:29.816Z,33.20
2018-07-20T07:57:59.077Z,35.58
2018-07-20T08:00:28.281Z,36.72
2018-07-20T08:02:57.598Z,39.42
2018-07-20T08:05:26.918Z,38.92
2018-07-20T08:07:56.183Z,38.77
2018-07-20T08:10:25.488Z,39.56
2018-07-20T08:12:54.602Z,39.69
2018-07-20T08:15:23.830Z,39.32
2018-07-20T08:17:53.100Z,39.48
2018-07-20T08:20:22.358Z,38.34
2018-07-20T08:22:51.642Z,39.44
2018-07-20T08:25:20.876Z,37.99
2018-07-20T08:27:50.114Z,37.84
2018-07-20T08:30:19.394Z,36.22
2018-07-20T08:32:48.668Z,37.80
2018-07-20T08:35:17.878Z,35.85
2018-07-20T08:37:48.354Z,34.38
2018-07-20T08:40:17.592Z,36.21
2018-07-20T08:42:46.839Z,35.03
2018-07-20T08:45:16.062Z,34.28
2018-07-20T08:47:45.284Z,32.73
2018-07-20T08:50:14.498Z,31.94
2018-07-20T08:52:43.790Z,34.94
2018-07-20T08:55:13.046Z,34.62
2018-07-20T08:57:42.283Z,35.27
2018-07-20T09:00:11.507Z,38.54
2018-07-20T09:02:40.915Z,38.98
2018-07-20T09:05:10.168Z,38.23
2018-07-20T09:07:39.357Z,35.68
2018-07-20T09:10:08.601Z,35.83
2018-07-20T09:12:37.894Z,36.36
2018-07-20T09:15:07.165Z,36.86
2018-07-20T09:17:36.373Z,36.98
2018-07-20T09:20:05.897Z,37.37
2018-07-20T09:22:35.204Z,37.21
2018-07-20T09:25:04.452Z,39.61
2018-07-20T09:27:33.694Z,38.60
2018-07-20T09:30:02.972Z,36.87
2018-07-20T09:32:32.235Z,36.64
2018-07-20T09:35:01.484Z,37.62
2018-07-20T09:37:30.730Z,39.05
2018-07-20T09:40:00.003Z,36.69
2018-07-20T09:42:29.227Z,39.48
2018-07-20T09:44:58.513Z,42.06
2018-07-20T09:47:27.752Z,42.61
2018-07-20T09:49:57.089Z,41.03
2018-07-20T09:52:26.394Z,39.05
2018-07-20T09:54:55.633Z,36.78
2018-07-20T09:57:25.278Z,35.42
2018-07-20T09:59:54.619Z,39.53
2018-07-20T10:02:24.726Z,37.96
2018-07-20T10:04:54.322Z,38.21
2018-07-20T10:07:23.568Z,39.16
2018-07-20T10:09:52.787Z,36.92
2018-07-20T10:12:22.051Z,38.58
2018-07-20T10:14:51.312Z,41.25
2018-07-20T10:17:20.525Z,42.44
2018-07-20T10:19:49.755Z,38.34
2018-07-20T10:22:19.020Z,37.90
2018-07-20T10:24:48.254Z,38.49
2018-07-20T10:27:17.502Z,40.55
2018-07-20T10:29:46.793Z,37.64
2018-07-20T10:32:16.044Z,35.91
2018-07-20T10:34:45.529Z,38.02
2018-07-20T10:37:14.878Z,40.00
2018-07-20T10:39:44.150Z,34.92
2018-07-20T10:42:13.365Z,32.79
2018-07-20T10:44:42.614Z,33.66
2018-07-20T10:47:11.884Z,34.09
2018-07-20T10:49:41.143Z,35.88
2018-07-20T10:52:10.447Z,35.64
2018-07-20T10:54:39.654Z,37.00
2018-07-20T10:57:09.518Z,36.24
2018-07-20T10:59:38.755Z,35.09
2018-07-20T11:02:07.981Z,34.44
2018-07-20T11:04:37.251Z,33.62
2018-07-20T11:07:06.548Z,33.11
2018-07-20T11:09:35.845Z,34.22
2018-07-20T11:12:05.070Z,34.74
2018-07-20T11:14:34.309Z,33.01
2018-07-20T11:17:03.530Z,31.97
2018-07-20T11:19:32.871Z,33.81
2018-07-20T11:22:02.147Z,38.28
2018-07-20T11:24:31.430Z,36.02
2018-07-20T11:27:00.994Z,36.81
2018-07-20T11:29:30.235Z,35.29
2018-07-20T11:31:59.626Z,36.78
2018-07-20T11:34:28.889Z,40.42
2018-07-20T11:36:58.189Z,35.64
2018-07-20T11:39:27.460Z,38.09
2018-07-20T11:41:56.754Z,40.97
2018-07-20T11:44:25.967Z,35.26
2018-07-20T11:46:55.255Z,33.63
2018-07-20T11:49:24.536Z,31.87
2018-07-20T11:51:54.508Z,30.57
2018-07-20T11:54:23.790Z,31.08
2018-07-20T11:56:53.042Z,31.98
2018-07-20T11:59:22.283Z,32.89
2018-07-20T12:01:51.556Z,30.70
2018-07-20T12:04:20.776Z,30.41
2018-07-20T12:06:50.094Z,31.21
2018-07-20T12:09:19.410Z,32.50
2018-07-20T12:11:48.646Z,31.27
2018-07-20T12:14:17.902Z,30.42
2018-07-20T12:16:47.146Z,30.37
2018-07-20T12:19:16.396Z,30.40
2018-07-20T12:21:45.622Z,29.04
2018-07-20T12:24:14.852Z,29.15
2018-07-20T12:26:44.090Z,29.43
2018-07-20T12:29:13.334Z,28.99
2018-07-20T12:31:42.560Z,30.33
2018-07-20T12:34:11.842Z,29.78
2018-07-20T12:36:41.098Z,29.62
2018-07-20T12:39:11.510Z,29.54
2018-07-20T12:41:41.581Z,28.56
2018-07-20T12:44:11.068Z,29.20
2018-07-20T12:46:40.961Z,30.23
2018-07-20T12:49:10.146Z,30.52
2018-07-20T12:51:39.418Z,30.14
2018-07-20T12:54:08.651Z,30.86
2018-07-20T12:56:52.173Z,31.02
2018-07-20T12:59:21.519Z,30.20
2018-07-20T13:01:50.763Z,29.98
2018-07-20T13:04:20.044Z,29.51
2018-07-20T13:06:49.283Z,28.97
2018-07-20T13:09:18.522Z,29.04
2018-07-20T13:11:47.835Z,29.84
2018-07-20T13:14:17.069Z,29.38
2018-07-20T13:16:46.430Z,29.50
2018-07-20T13:19:15.736Z,30.45
2018-07-20T13:21:46.122Z,30.73
2018-07-20T13:24:15.364Z,30.69
2018-07-20T13:26:44.611Z,30.34
2018-07-20T13:29:15.746Z,31.06
2018-07-20T13:31:45.082Z,30.81
2018-07-20T13:34:14.315Z,30.97
2018-07-20T13:36:43.576Z,30.67
2018-07-20T13:39:12.819Z,29.92
2018-07-20T13:41:42.199Z,29.57
2018-07-20T13:44:11.463Z,30.78
2018-07-20T13:46:40.715Z,31.09
2018-07-20T13:49:09.959Z,29.84
2018-07-20T13:51:39.186Z,30.51
2018-07-20T13:54:08.775Z,31.27
2018-07-20T13:56:38.043Z,31.74
2018-07-20T13:59:07.271Z,31.44
2018-07-20T14:01:36.615Z,30.46
2018-07-20T14:04:05.947Z,30.23
2018-07-20T14:06:35.187Z,29.43
2018-07-20T14:09:06.128Z,28.52
2018-07-20T14:11:36.675Z,28.51
2018-07-20T14:14:05.929Z,28.14
2018-07-20T14:16:35.227Z,28.00
2018-07-20T14:19:04.435Z,28.40
2018-07-20T14:21:33.710Z,29.73
2018-07-20T14:24:02.975Z,30.43
2018-07-20T14:26:32.238Z,31.35
2018-07-20T14:29:01.411Z,31.23
2018-07-20T14:31:30.666Z,30.07
2018-07-20T14:33:59.887Z,29.81
2018-07-20T14:36:29.116Z,30.59
2018-07-20T14:38:58.471Z,30.81
2018-07-20T14:41:27.709Z,30.57
2018-07-20T14:43:57.011Z,30.69
2018-07-20T14:46:26.244Z,30.62
2018-07-20T14:48:55.515Z,30.09
2018-07-20T14:51:24.841Z,30.65
2018-07-20T14:53:54.059Z,31.38
2018-07-20T14:56:23.302Z,30.80
2018-07-20T14:58:52.579Z,29.99
2018-07-20T15:01:21.895Z,29.79
2018-07-20T15:03:51.170Z,28.94
2018-07-20T15:06:20.423Z,28.80
2018-07-20T15:08:49.655Z,28.78
2018-07-20T15:11:18.926Z,28.93
2018-07-20T15:13:48.184Z,28.78
2018-07-20T15:16:17.438Z,28.48
2018-07-20T15:18:46.685Z,28.17
2018-07-20T15:21:16.015Z,28.24
2018-07-20T15:23:45.235Z,27.88
2018-07-20T15:26:14.559Z,27.78
2018-07-20T15:28:43.810Z,27.59
2018-07-20T15:31:13.063Z,27.77
2018-07-20T15:33:42.325Z,27.83
2018-07-20T15:36:11.584Z,28.15
2018-07-20T15:38:40.907Z,28.18
2018-07-20T15:41:10.286Z,28.25
2018-07-20T15:43:40.713Z,28.34
2018-07-20T15:46:13.340Z,27.83
2018-07-20T15:48:42.771Z,28.02
2018-07-20T15:51:12.006Z,28.28
2018-07-20T15:53:41.334Z,27.99
2018-07-20T15:56:10.503Z,27.64
2018-07-20T15:58:39.771Z,27.79
2018-07-20T16:01:09.094Z,28.05
2018-07-20T16:03:38.351Z,27.97
2018-07-20T16:06:07.600Z,27.93
2018-07-20T16:08:37.105Z,27.78
2018-07-20T16:11:06.370Z,27.98
2018-07-20T16:13:35.606Z,28.24
2018-07-20T16:16:04.936Z,28.65
2018-07-20T16:18:34.174Z,28.42
2018-07-20T16:21:03.416Z,28.71
2018-07-20T16:23:32.675Z,28.44
2018-07-20T16:26:02.040Z,28.82
2018-07-20T16:28:31.211Z,28.10
2018-07-20T16:31:00.525Z,27.81
2018-07-20T16:33:29.770Z,27.35
2018-07-20T16:35:59.098Z,27.07
2018-07-20T16:38:28.331Z,27.30
2018-07-20T16:40:57.562Z,27.06
2018-07-20T16:43:26.852Z,26.96
2018-07-20T16:45:56.189Z,27.06
2018-07-20T16:48:25.414Z,27.19
2018-07-20T16:50:54.692Z,27.27
2018-07-20T16:53:23.884Z,27.25
2018-07-20T16:55:53.250Z,27.22
2018-07-20T16:58:22.783Z,27.37
2018-07-20T17:00:52.195Z,27.20
2018-07-20T17:03:21.560Z,27.10
2018-07-20T17:05:50.794Z,27.04
2018-07-20T17:08:20.176Z,26.92
2018-07-20T17:10:49.454Z,27.27
2018-07-20T17:13:19.672Z,27.45
2018-07-20T17:15:48.928Z,27.47
2018-07-20T17:18:18.158Z,27.47
2018-07-20T17:20:47.451Z,27.51
2018-07-20T17:23:16.724Z,27.46
2018-07-20T17:25:46.158Z,27.45
2018-07-20T17:28:15.451Z,27.43
2018-07-20T17:30:44.654Z,27.35
2018-07-20T17:33:13.896Z,27.26
2018-07-20T17:35:43.173Z,27.19
2018-07-20T17:38:12.375Z,27.14
2018-07-20T17:40:41.619Z,27.08
2018-07-20T17:43:10.922Z,26.94
2018-07-20T17:45:40.203Z,26.83
2018-07-20T17:48:09.474Z,26.65
2018-07-20T17:50:38.657Z,26.51
2018-07-20T17:53:07.934Z,26.42
2018-07-20T17:55:37.199Z,26.43
2018-07-20T17:58:06.556Z,26.23
2018-07-20T18:00:35.958Z,25.85
2018-07-20T18:03:05.306Z,25.80
2018-07-20T18:05:34.558Z,25.86
2018-07-20T18:08:03.792Z,26.03
2018-07-20T18:10:33.086Z,25.81
2018-07-20T18:13:02.311Z,25.84
2018-07-20T18:15:31.608Z,25.33
2018-07-20T18:18:00.799Z,25.18
2018-07-20T18:20:30.066Z,25.20
2018-07-20T18:22:59.274Z,24.99
2018-07-20T18:25:28.514Z,24.94
2018-07-20T18:27:57.779Z,25.07
2018-07-20T18:30:27.038Z,25.00
2018-07-20T18:32:56.282Z,24.87
2018-07-20T18:35:25.602Z,24.82
2018-07-20T18:37:54.835Z,24.76
2018-07-20T18:40:24.098Z,24.58
2018-07-20T18:42:53.398Z,24.74
2018-07-20T18:45:22.643Z,24.62
2018-07-20T18:47:51.920Z,24.59
2018-07-20T18:50:21.180Z,24.43
2018-07-20T18:52:50.406Z,24.33
2018-07-20T18:55:19.682Z,24.23
2018-07-20T18:57:48.934Z,24.15
2018-07-20T19:00:18.194Z,23.92
2018-07-20T19:02:47.434Z,23.87
2018-07-20T19:05:16.703Z,23.88
2018-07-20T19:10:14.255Z,23.72
2018-07-20T19:12:43.478Z,23.58
2018-07-20T19:15:12.843Z,23.50
2018-07-20T19:17:41.965Z,23.40
2018-07-20T19:20:11.220Z,23.43
2018-07-20T19:22:40.459Z,23.40
2018-07-20T19:25:09.763Z,23.31
2018-07-20T19:27:39.003Z,23.19
2018-07-20T19:30:08.267Z,23.10
2018-07-20T19:32:37.553Z,23.07
2018-07-20T19:35:06.863Z,23.06
2018-07-20T19:37:36.202Z,23.02
2018-07-20T19:40:05.477Z,23.10
2018-07-20T19:42:34.767Z,23.06
2018-07-20T19:45:04.031Z,23.00
2018-07-20T19:47:33.283Z,22.91
2018-07-20T19:50:02.554Z,22.72
2018-07-20T19:52:31.882Z,22.69
2018-07-20T19:55:01.143Z,22.65
2018-07-20T19:57:30.414Z,22.67
2018-07-20T19:59:59.649Z,22.84
2018-07-20T20:02:28.914Z,22.57
2018-07-20T20:04:58.144Z,22.71
2018-07-20T20:07:27.354Z,22.58
2018-07-20T20:09:56.614Z,22.53
2018-07-20T20:12:25.874Z,22.21
2018-07-20T20:14:55.142Z,22.09
2018-07-20T20:17:24.386Z,22.08
2018-07-20T20:19:53.638Z,22.22
2018-07-20T20:22:22.875Z,22.22
2018-07-20T20:24:52.150Z,22.02
2018-07-20T20:27:21.391Z,22.09
2018-07-20T20:29:50.662Z,21.94
2018-07-20T20:32:19.885Z,22.00
2018-07-20T20:34:49.126Z,21.79
2018-07-20T20:37:18.357Z,21.86
2018-07-20T20:39:47.606Z,21.84
2018-07-20T20:42:16.817Z,21.87
2018-07-20T20:44:46.111Z,21.72
2018-07-20T20:47:15.450Z,21.56
2018-07-20T20:49:45.922Z,21.50
2018-07-20T20:52:15.219Z,21.47
2018-07-20T20:54:44.466Z,21.33
2018-07-20T20:57:13.766Z,21.18
2018-07-20T20:59:43.036Z,21.29
2018-07-20T21:02:12.274Z,21.41
2018-07-20T21:04:41.581Z,21.52
2018-07-20T21:07:10.870Z,21.51
2018-07-20T21:09:40.154Z,21.40
2018-07-20T21:12:09.812Z,21.27
2018-07-20T21:14:38.916Z,21.13
2018-07-20T21:17:08.215Z,21.01
2018-07-20T21:19:37.484Z,20.94
2018-07-20T21:22:06.718Z,20.68
2018-07-20T21:24:35.962Z,20.75
2018-07-20T21:27:05.190Z,20.47
2018-07-20T21:29:34.440Z,19.91
2018-07-20T21:32:03.694Z,19.59
2018-07-20T21:34:32.948Z,19.37
2018-07-20T21:37:02.173Z,19.09
2018-07-20T21:39:31.405Z,19.12
2018-07-20T21:42:00.694Z,18.92
2018-07-20T21:44:30.007Z,18.99
2018-07-20T21:46:59.276Z,18.95
2018-07-20T21:49:29.744Z,18.94
2018-07-20T21:52:05.646Z,18.86
2018-07-20T21:54:34.915Z,18.54
2018-07-20T21:57:04.170Z,18.35
2018-07-20T21:59:33.562Z,18.39
2018-07-20T22:02:02.797Z,18.20
2018-07-20T22:04:32.978Z,18.21
2018-07-20T22:07:02.253Z,18.23
2018-07-20T22:09:31.520Z,18.17
2018-07-20T22:12:00.799Z,18.17
2018-07-20T22:14:30.011Z,18.29
2018-07-20T22:16:59.266Z,18.33
2018-07-20T22:19:28.476Z,18.39
2018-07-20T22:21:57.729Z,18.35
2018-07-20T22:24:26.926Z,18.34
2018-07-20T22:26:56.197Z,18.32
2018-07-20T22:29:25.410Z,18.36
2018-07-20T22:31:54.709Z,18.08
2018-07-20T22:34:23.919Z,17.77
2018-07-20T22:36:53.116Z,17.97
2018-07-20T22:39:22.354Z,17.96
2018-07-20T22:41:51.592Z,17.82
2018-07-20T22:44:20.962Z,17.73
2018-07-20T22:46:50.216Z,17.89
2018-07-20T22:49:19.476Z,17.90
2018-07-20T22:51:48.716Z,18.02
2018-07-20T22:54:17.954Z,17.92
2018-07-20T22:56:47.439Z,17.76
2018-07-20T22:59:16.666Z,17.82
2018-07-20T23:01:45.882Z,17.84
2018-07-20T23:04:15.174Z,17.87
2018-07-20T23:06:44.399Z,17.97
2018-07-20T23:09:13.655Z,17.84
2018-07-20T23:11:42.866Z,17.82
2018-07-20T23:14:12.107Z,17.59
2018-07-20T23:16:41.380Z,17.45
2018-07-20T23:19:10.599Z,17.45
2018-07-20T23:21:39.886Z,17.38
2018-07-20T23:24:09.272Z,17.42
2018-07-20T23:26:38.548Z,17.35
2018-07-20T23:29:08.845Z,17.09
2018-07-20T23:31:38.062Z,17.07
2018-07-20T23:34:07.616Z,17.00
2018-07-20T23:36:36.891Z,16.97
2018-07-20T23:39:08.594Z,16.97
2018-07-20T23:41:37.912Z,16.95
2018-07-20T23:44:07.463Z,17.29
2018-07-20T23:46:36.687Z,17.31
2018-07-20T23:49:06.004Z,17.28
2018-07-20T23:51:35.226Z,17.25
2018-07-20T23:54:04.447Z,17.08
2018-07-20T23:56:33.736Z,17.05
2018-07-20T23:59:03.016Z,16.92
